Time;durP1;ratioP1;P1;durP2;ratioP2;P2;SDS_P1;SDS_P2;PMS_P1;PMS_P2;Temp;Humidity;BMP_temperature;BMP_pressure;BME280_temperature;BME280_humidity;BME280_pressure;Samples;Min_cycle;Max_cycle;Signal;HPM_P1;HPM_P2
2023/03/09 00:01:26;;;;;;;20.40;14.20;;;;;;;10.01;100.00;148558.03;5134496;27;20179;-62
2023/03/09 00:03:53;;;;;;;30.67;15.90;;;;;;;10.03;100.00;148564.31;5134499;27;20194;-62
2023/03/09 00:06:20;;;;;;;18.00;14.23;;;;;;;9.95;100.00;148542.84;5134011;27;20191;-63
2023/03/09 00:08:47;;;;;;;16.40;14.40;;;;;;;10.15;100.00;148592.09;5134227;27;20633;-63
2023/03/09 00:11:15;;;;;;;19.53;14.40;;;;;;;10.15;100.00;148592.09;5134144;27;20596;-62
2023/03/09 00:13:43;;;;;;;28.90;14.57;;;;;;;10.12;100.00;148584.53;5134115;27;20187;-62
2023/03/09 00:16:13;;;;;;;30.13;15.23;;;;;;;10.26;100.00;148621.25;5133514;27;20227;-62
2023/03/09 00:18:40;;;;;;;23.70;14.37;;;;;;;10.12;100.00;148585.81;5133897;27;20213;-61
2023/03/09 00:21:07;;;;;;;25.07;14.57;;;;;;;10.13;100.00;148588.34;5133429;27;20194;-62
2023/03/09 00:23:36;;;;;;;22.47;14.50;;;;;;;9.77;100.00;148497.34;5133661;27;20193;-62
2023/03/09 00:26:04;;;;;;;20.60;14.83;;;;;;;9.86;100.00;148521.38;5133603;27;20277;-62
2023/03/09 00:28:31;;;;;;;25.50;13.77;;;;;;;9.83;100.00;148512.53;5133535;27;20191;-62
2023/03/09 00:31:04;;;;;;;27.60;13.87;;;;;;;9.69;100.00;148477.16;5134004;27;20626;-62
2023/03/09 00:33:32;;;;;;;19.43;13.90;;;;;;;9.63;100.00;148463.28;5133465;27;20203;-62
2023/03/09 00:35:59;;;;;;;22.57;14.20;;;;;;;9.53;100.00;148439.28;5133392;27;20179;-62
2023/03/09 00:38:26;;;;;;;22.13;13.27;;;;;;;9.63;100.00;148464.50;5133337;27;20187;-62
2023/03/09 00:40:53;;;;;;;23.53;13.93;;;;;;;9.47;100.00;148424.09;5133705;27;20530;-62
2023/03/09 00:43:19;;;;;;;21.10;14.33;;;;;;;9.70;100.00;148479.69;5133191;27;20194;-63
2023/03/09 00:45:48;;;;;;;24.67;15.20;;;;;;;9.56;100.00;148445.56;5133571;27;20573;-63
2023/03/09 00:48:16;;;;;;;24.83;14.63;;;;;;;9.30;100.00;148379.91;5133419;27;20187;-62
2023/03/09 00:50:43;;;;;;;26.87;15.73;;;;;;;9.37;100.00;148397.59;5133402;27;20556;-62
2023/03/09 00:53:10;;;;;;;24.33;16.80;;;;;;;9.40;100.00;148406.44;5133241;27;20198;-62
2023/03/09 00:55:37;;;;;;;23.47;15.27;;;;;;;9.49;100.00;148429.16;5132115;27;20218;-62
2023/03/09 00:58:04;;;;;;;27.03;13.63;;;;;;;9.60;100.00;148455.66;5132955;27;20193;-62
2023/03/09 01:00:33;;;;;;;21.50;13.97;;;;;;;9.67;100.00;148472.13;5132999;27;20190;-63
2023/03/09 01:03:00;;;;;;;24.87;14.50;;;;;;;9.53;100.00;148439.28;5133456;27;20640;-62
2023/03/09 01:05:28;;;;;;;21.00;13.53;;;;;;;9.67;100.00;148472.13;5116483;27;20183;-62
2023/03/09 01:07:55;;;;;;;22.83;13.33;;;;;;;9.61;100.00;148458.22;5133175;27;20625;-63
2023/03/09 01:10:22;;;;;;;30.23;13.93;;;;;;;9.48;100.00;148426.63;5132697;27;20183;-63
2023/03/09 01:12:49;;;;;;;15.80;13.80;;;;;;;9.47;100.00;148424.09;5132844;27;20190;-62
2023/03/09 01:15:16;;;;;;;26.87;15.27;;;;;;;9.30;100.00;148379.91;5132975;27;20207;-62
2023/03/09 01:17:43;;;;;;;17.73;13.30;;;;;;;9.23;100.00;148362.22;5056974;27;20233;-63
2023/03/09 01:20:11;;;;;;;20.47;13.43;;;;;;;8.88;100.00;148275.09;5048726;28;20250;-61
2023/03/09 01:22:40;;;;;;;21.50;13.90;;;;;;;8.86;100.00;148271.34;5049054;28;20628;-62
2023/03/09 01:25:09;;;;;;;19.13;14.43;;;;;;;8.63;100.00;148214.53;5048909;28;20186;-63
2023/03/09 01:27:36;;;;;;;23.53;14.47;;;;;;;8.79;100.00;148252.38;5048562;28;20225;-62
2023/03/09 01:30:03;;;;;;;17.53;14.07;;;;;;;8.81;100.00;148258.72;5048822;28;20189;-63
2023/03/09 01:32:30;;;;;;;21.33;15.57;;;;;;;8.63;100.00;148213.28;5048603;28;20189;-62
2023/03/09 01:34:57;;;;;;;21.53;16.17;;;;;;;8.65;100.00;148219.63;5048793;28;20655;-62
2023/03/09 01:37:24;;;;;;;30.67;16.20;;;;;;;8.47;100.00;148172.91;5048441;28;20563;-61
2023/03/09 01:39:52;;;;;;;23.53;16.33;;;;;;;8.45;100.00;148169.09;5048449;28;20185;-63
2023/03/09 01:42:19;;;;;;;25.10;16.00;;;;;;;8.49;100.00;148179.19;5048713;28;20189;-62
2023/03/09 01:44:46;;;;;;;28.97;16.60;;;;;;;8.39;100.00;148152.72;5048446;28;20204;-62
2023/03/09 01:47:13;;;;;;;31.63;16.33;;;;;;;8.55;100.00;148193.09;5048343;28;20197;-63
2023/03/09 01:49:42;;;;;;;23.83;15.47;;;;;;;8.65;100.00;148219.63;5047665;28;20371;-63
2023/03/09 01:52:16;;;;;;;27.53;16.33;;;;;;;8.58;100.00;148200.66;5048220;28;20182;-63
2023/03/09 01:54:48;;;;;;;19.93;15.57;;;;;;;8.62;100.00;148212.00;5048186;28;20258;-62
2023/03/09 01:57:25;;;;;;;25.83;15.03;;;;;;;8.79;100.00;148252.38;5048512;28;20556;-62
2023/03/09 01:59:54;;;;;;;19.27;14.70;;;;;;;8.66;100.00;148222.09;5048259;28;20197;-62
2023/03/09 02:02:23;;;;;;;20.57;14.77;;;;;;;8.57;100.00;148198.16;5045205;28;20207;-62
2023/03/09 02:04:54;;;;;;;19.20;14.40;;;;;;;8.86;100.00;148270.09;5043632;28;20716;-62
2023/03/09 02:07:23;;;;;;;21.87;14.30;;;;;;;8.89;100.00;148277.66;5050501;28;20193;-63
2023/03/09 02:09:55;;;;;;;17.87;15.37;;;;;;;8.87;100.00;148273.84;5051937;28;20196;-63
2023/03/09 02:12:23;;;;;;;17.93;14.57;;;;;;;8.59;100.00;148204.44;5051612;28;20648;-62
2023/03/09 02:14:51;;;;;;;17.17;14.47;;;;;;;8.65;100.00;148218.34;5051753;28;20624;-62
2023/03/09 02:17:21;;;;;;;24.90;14.00;;;;;;;8.61;100.00;148209.47;5051409;28;20247;-62
2023/03/09 02:20:05;;;;;;;25.13;14.97;;;;;;;8.71;100.00;148233.47;5051577;28;20185;-63
2023/03/09 02:22:33;;;;;;;20.17;13.37;;;;;;;8.73;100.00;148238.53;5051791;28;20185;-62
2023/03/09 02:25:08;;;;;;;20.13;13.80;;;;;;;8.74;100.00;148241.06;5051442;28;20189;-63
2023/03/09 02:27:37;;;;;;;25.67;14.87;;;;;;;8.51;100.00;148184.25;5051341;28;20198;-63
2023/03/09 02:30:05;;;;;;;19.50;14.33;;;;;;;8.07;100.00;148073.16;5051673;28;20658;-62
2023/03/09 02:32:32;;;;;;;23.70;13.87;;;;;;;8.27;100.00;148124.88;5051167;28;20242;-62
2023/03/09 02:34:59;;;;;;;25.37;13.57;;;;;;;8.22;100.00;148112.31;5051227;28;20209;-63
2023/03/09 02:37:31;;;;;;;22.27;13.57;;;;;;;8.21;100.00;148108.50;5051185;28;20194;-62
2023/03/09 02:40:04;;;;;;;21.73;13.50;;;;;;;8.45;100.00;148169.09;5051477;28;20186;-62
2023/03/09 02:42:31;;;;;;;18.63;13.57;;;;;;;8.48;100.00;148176.69;5051436;28;20242;-62
2023/03/09 02:45:00;;;;;;;22.57;13.80;;;;;;;8.56;100.00;148195.63;5051365;28;20280;-63
2023/03/09 02:47:27;;;;;;;20.77;13.33;;;;;;;8.58;100.00;148201.91;5051325;28;20186;-63
2023/03/09 02:49:54;;;;;;;14.50;13.13;;;;;;;8.88;100.00;148275.09;5050997;28;20194;-64
2023/03/09 02:52:21;;;;;;;15.73;12.37;;;;;;;8.85;100.00;148267.56;5051313;28;20572;-62
2023/03/09 02:54:48;;;;;;;13.37;12.10;;;;;;;9.09;100.00;148328.13;5050865;28;20208;-63
2023/03/09 02:57:15;;;;;;;9.27;8.67;;;;;;;9.21;100.00;148358.44;5050901;28;20190;-63
2023/03/09 02:59:42;;;;;;;11.80;10.70;;;;;;;9.31;100.00;148383.69;5051079;28;20182;-63
2023/03/09 03:02:10;;;;;;;15.90;11.97;;;;;;;9.36;100.00;148396.34;5049581;28;20204;-63
2023/03/09 03:04:37;;;;;;;14.90;10.97;;;;;;;9.34;100.00;148391.25;5044273;28;20613;-62
2023/03/09 03:07:04;;;;;;;12.80;11.47;;;;;;;9.34;100.00;148391.25;5050741;28;20185;-62
2023/03/09 03:09:31;;;;;;;19.37;11.77;;;;;;;9.18;100.00;148350.88;5050764;28;20656;-62
2023/03/09 03:11:58;;;;;;;15.03;10.90;;;;;;;9.29;100.00;148378.66;5050727;28;20185;-62
2023/03/09 03:14:25;;;;;;;12.80;11.17;;;;;;;9.24;100.00;148366.03;5050623;28;20222;-63
2023/03/09 03:16:52;;;;;;;21.03;11.40;;;;;;;9.10;100.00;148330.66;5096502;27;20230;-62
2023/03/09 03:19:20;;;;;;;13.73;10.50;;;;;;;9.06;100.00;148320.56;5134310;27;20605;-62
2023/03/09 03:21:48;;;;;;;12.43;10.77;;;;;;;9.19;100.00;148353.41;5135018;27;20190;-62
2023/03/09 03:24:15;;;;;;;14.23;9.73;;;;;;;9.13;100.00;148338.22;5135042;27;20273;-62
2023/03/09 03:26:42;;;;;;;15.07;10.27;;;;;;;8.97;100.00;148297.84;5134983;27;20187;-62
2023/03/09 03:29:09;;;;;;;14.00;9.73;;;;;;;9.00;100.00;148306.66;5134821;27;20183;-62
2023/03/09 03:31:36;;;;;;;15.73;10.63;;;;;;;9.11;100.00;148333.19;5134965;27;20633;-63
2023/03/09 03:34:03;;;;;;;14.83;9.07;;;;;;;8.97;100.00;148297.84;5134785;27;20572;-62
2023/03/09 03:36:31;;;;;;;9.63;8.37;;;;;;;8.91;100.00;148282.72;5134939;27;20206;-61
2023/03/09 03:38:58;;;;;;;16.23;7.60;;;;;;;8.78;100.00;148249.91;5134542;27;20194;-63
2023/03/09 03:41:25;;;;;;;8.57;6.73;;;;;;;8.83;100.00;148262.47;5134855;27;20186;-63
2023/03/09 03:43:52;;;;;;;11.67;7.80;;;;;;;8.78;100.00;148251.16;5134717;27;20183;-62
2023/03/09 03:46:19;;;;;;;18.30;8.27;;;;;;;8.94;100.00;148291.53;5134441;27;20179;-63
2023/03/09 03:48:46;;;;;;;8.93;7.23;;;;;;;8.85;100.00;148267.56;5134538;27;20502;-62
2023/03/09 03:51:13;;;;;;;7.57;6.77;;;;;;;9.02;100.00;148310.47;5134292;27;20181;-62
2023/03/09 03:53:42;;;;;;;10.90;6.60;;;;;;;9.09;100.00;148329.41;5134160;27;20186;-64
2023/03/09 03:56:09;;;;;;;7.73;7.40;;;;;;;9.09;100.00;148329.41;5134090;27;20213;-62
2023/03/09 03:58:36;;;;;;;15.97;7.20;;;;;;;9.39;100.00;148403.91;5134107;27;20187;-62
2023/03/09 04:01:04;;;;;;;8.07;7.50;;;;;;;9.50;100.00;148430.44;5134078;27;20186;-62
2023/03/09 04:03:31;;;;;;;10.90;7.50;;;;;;;9.61;100.00;148459.47;5134359;27;20206;-62
2023/03/09 04:05:57;;;;;;;19.23;9.13;;;;;;;9.59;100.00;148454.41;5134102;27;20195;-62
2023/03/09 04:08:24;;;;;;;9.00;8.10;;;;;;;9.85;100.00;148517.56;5134227;27;20518;-63
2023/03/09 04:10:52;;;;;;;8.83;8.07;;;;;;;9.85;100.00;148517.56;5133890;27;20182;-62
2023/03/09 04:13:19;;;;;;;8.80;7.63;;;;;;;9.93;100.00;148537.81;5134214;27;20629;-63
2023/03/09 04:15:46;;;;;;;11.60;8.50;;;;;;;9.87;100.00;148523.91;5133916;27;20580;-63
2023/03/09 04:18:13;;;;;;;10.83;8.90;;;;;;;9.94;100.00;148540.31;5133773;27;20189;-63
2023/03/09 04:20:41;;;;;;;14.70;10.80;;;;;;;10.08;100.00;148576.97;5133858;27;20553;-63
2023/03/09 04:23:09;;;;;;;10.70;9.70;;;;;;;10.16;100.00;148595.97;5133592;27;20182;-62
2023/03/09 04:25:36;;;;;;;11.13;9.03;;;;;;;10.28;100.00;148625.00;5132994;27;20175;-63
2023/03/09 04:28:05;;;;;;;11.03;10.30;;;;;;;10.38;100.00;148651.56;5132940;27;20193;-62
2023/03/09 04:30:31;;;;;;;10.23;9.33;;;;;;;10.47;100.00;148674.34;5133341;27;20230;-62
2023/03/09 04:32:58;;;;;;;12.93;10.37;;;;;;;10.49;100.00;148678.09;5133810;27;20186;-63
2023/03/09 04:35:25;;;;;;;15.87;11.20;;;;;;;10.49;100.00;148678.09;5133491;27;20685;-63
2023/03/09 04:37:53;;;;;;;16.47;11.70;;;;;;;10.33;100.00;148637.66;5133361;27;20190;-63
2023/03/09 04:40:20;;;;;;;29.37;12.80;;;;;;;10.22;100.00;148611.16;5133623;27;20182;-62
2023/03/09 04:42:46;;;;;;;23.63;13.23;;;;;;;10.30;100.00;148631.38;5133374;27;20187;-63
2023/03/09 04:45:15;;;;;;;16.23;13.37;;;;;;;10.30;100.00;148630.09;5133223;27;20183;-62
2023/03/09 04:47:42;;;;;;;23.70;15.47;;;;;;;10.27;100.00;148623.75;5132871;27;20198;-62
2023/03/09 04:50:10;;;;;;;25.67;14.10;;;;;;;10.28;100.00;148625.00;5133264;27;20198;-62
2023/03/09 04:52:37;;;;;;;23.80;14.60;;;;;;;10.35;100.00;148644.00;5132863;27;20183;-63
2023/03/09 04:55:05;;;;;;;23.00;14.70;;;;;;;10.53;100.00;148689.47;5132737;27;20191;-62
2023/03/09 04:57:32;;;;;;;24.47;15.80;;;;;;;10.62;100.00;148709.69;5133281;27;20191;-61
2023/03/09 04:59:59;;;;;;;19.47;14.90;;;;;;;10.67;100.00;148723.63;5132946;27;20187;-62
2023/03/09 05:02:28;;;;;;;18.70;15.23;;;;;;;10.78;100.00;148750.13;5132701;27;20195;-62
2023/03/09 05:04:55;;;;;;;27.03;14.40;;;;;;;10.88;100.00;148776.72;5133244;27;20187;-62
2023/03/09 05:07:22;;;;;;;23.80;14.23;;;;;;;10.99;100.00;148803.25;5132922;27;20190;-62
2023/03/09 05:09:49;;;;;;;15.67;13.70;;;;;;;11.10;100.00;148831.09;5132740;27;20182;-62
2023/03/09 05:12:16;;;;;;;22.60;13.87;;;;;;;11.20;100.00;148855.13;5132620;27;20190;-63
2023/03/09 05:14:43;;;;;;;16.27;14.63;;;;;;;11.27;100.00;148872.81;5132975;27;20189;-62
2023/03/09 05:17:10;;;;;;;22.23;14.23;;;;;;;11.28;100.00;148876.63;5131923;27;20604;-63
2023/03/09 05:19:38;;;;;;;22.60;14.80;;;;;;;11.37;100.00;148899.34;5132984;27;20600;-62
2023/03/09 05:22:06;;;;;;;27.37;15.47;;;;;;;11.37;100.00;148898.13;5132320;27;20235;-63
2023/03/09 05:24:33;;;;;;;25.00;14.77;;;;;;;11.56;100.00;148946.19;5132983;27;20274;-63
2023/03/09 05:26:59;;;;;;;27.37;14.97;;;;;;;11.57;100.00;148948.72;5132891;27;20198;-62
2023/03/09 05:29:26;;;;;;;27.87;15.40;;;;;;;11.68;100.00;148976.53;5132416;27;20270;-62
2023/03/09 05:31:53;;;;;;;19.77;15.13;;;;;;;11.68;100.00;148976.53;5132912;27;20189;-63
2023/03/09 05:34:20;;;;;;;25.87;15.60;;;;;;;11.89;100.00;149029.72;5132523;27;20186;-63
2023/03/09 05:36:49;;;;;;;23.57;15.27;;;;;;;11.99;100.00;149053.78;5132035;27;20202;-63
2023/03/09 05:39:16;;;;;;;31.20;14.40;;;;;;;12.07;100.00;149074.03;5132780;27;20187;-64
2023/03/09 05:41:43;;;;;;;27.00;14.87;;;;;;;12.21;100.00;149109.47;5131486;27;20197;-61
2023/03/09 05:44:10;;;;;;;54.97;19.77;;;;;;;12.35;100.00;149144.88;5132447;28;20183;-63
2023/03/09 05:46:37;;;;;;;63.87;19.77;;;;;;;12.27;100.00;149124.63;5131945;28;20212;-62
2023/03/09 05:49:04;;;;;;;45.03;20.03;;;;;;;12.26;100.00;149122.09;5132627;28;20208;-62
2023/03/09 05:51:31;;;;;;;50.50;21.13;;;;;;;12.39;100.00;149152.50;5028966;28;20209;-62
2023/03/09 05:53:59;;;;;;;82.93;22.53;;;;;;;12.53;100.00;149187.94;5028351;28;20285;-63
2023/03/09 05:56:26;;;;;;;59.57;20.53;;;;;;;12.62;100.00;149212.00;5020604;28;20233;-63
2023/03/09 05:58:56;;;;;;;51.10;20.83;;;;;;;12.69;100.00;149228.44;5028630;28;20617;-62
2023/03/09 06:01:25;;;;;;;39.83;16.77;;;;;;;12.71;100.00;149233.53;5028226;28;20201;-62
2023/03/09 06:03:52;;;;;;;39.57;14.17;;;;;;;12.66;100.00;149222.13;5028736;28;20682;-61
2023/03/09 06:06:19;;;;;;;15.33;11.00;;;;;;;12.86;100.00;149271.50;5028093;28;20190;-61
2023/03/09 06:08:46;;;;;;;29.07;11.13;;;;;;;13.01;100.00;149308.25;5028178;28;20193;-60
2023/03/09 06:11:15;;;;;;;13.03;9.57;;;;;;;13.04;100.00;149315.81;5028055;28;20190;-61
2023/03/09 06:13:43;;;;;;;15.57;10.30;;;;;;;13.19;100.00;149353.91;5028108;28;20186;-62
2023/03/09 06:16:13;;;;;;;18.03;10.13;;;;;;;13.16;100.00;149347.53;5027736;27;20234;-62
2023/03/09 06:18:41;;;;;;;16.30;9.60;;;;;;;13.33;100.00;149388.06;5027979;28;20197;-62
2023/03/09 06:21:08;;;;;;;15.50;9.87;;;;;;;13.49;100.00;149428.63;5027947;28;20198;-61
2023/03/09 06:23:36;;;;;;;12.40;10.10;;;;;;;13.64;100.00;149467.91;5028419;28;20193;-62
2023/03/09 06:26:04;;;;;;;15.60;9.83;;;;;;;13.73;100.00;149489.44;5131289;28;20183;-63
2023/03/09 06:28:33;;;;;;;11.50;9.17;;;;;;;14.17;100.00;149600.94;5132230;28;20656;-62
2023/03/09 06:31:00;;;;;;;9.63;8.43;;;;;;;14.47;100.00;149675.78;5132312;28;20573;-63
2023/03/09 06:33:27;;;;;;;10.23;9.23;;;;;;;14.73;100.00;149740.47;5131832;28;20193;-62
2023/03/09 06:35:53;;;;;;;12.40;10.67;;;;;;;14.94;100.00;149793.75;5131746;28;20207;-63
2023/03/09 06:38:20;;;;;;;11.43;10.73;;;;;;;15.08;100.00;149828.00;5133757;28;20542;-63
2023/03/09 06:40:48;;;;;;;12.53;11.43;;;;;;;15.53;100.00;149942.22;5132089;28;20183;-63
2023/03/09 06:43:15;;;;;;;11.57;10.57;;;;;;;15.80;100.00;150009.50;5132076;28;20629;-64
2023/03/09 06:45:47;;;;;;;13.43;12.40;;;;;;;15.90;100.00;150034.88;5131992;28;20664;-63
2023/03/09 06:48:16;;;;;;;13.67;11.97;;;;;;;15.92;100.00;150039.94;5132086;28;20601;-63
2023/03/09 06:50:43;;;;;;;15.17;13.67;;;;;;;16.12;100.00;150088.22;5131800;28;20194;-62
2023/03/09 06:53:10;;;;;;;15.03;14.10;;;;;;;16.21;100.00;150111.06;5131788;27;20187;-64
2023/03/09 06:55:38;;;;;;;17.77;14.00;;;;;;;16.57;100.00;150202.50;5135227;27;20183;-63
2023/03/09 06:58:05;;;;;;;15.53;14.20;;;;;;;16.70;100.00;150234.25;5135216;27;20195;-64
2023/03/09 07:00:37;;;;;;;16.13;14.87;;;;;;;16.67;100.00;150226.66;5135258;27;20225;-63
2023/03/09 07:03:06;;;;;;;17.20;15.50;;;;;;;17.00;100.00;150309.19;5135144;27;20195;-64
2023/03/09 07:05:33;;;;;;;15.83;14.20;;;;;;;17.21;100.00;150362.56;5135109;27;20194;-64
2023/03/09 07:07:59;;;;;;;15.90;13.83;;;;;;;17.04;100.00;150319.38;5135067;27;20178;-63
2023/03/09 07:10:26;;;;;;;24.90;14.77;;;;;;;17.13;100.00;150342.25;5116367;27;20206;-63
2023/03/09 07:12:53;;;;;;;22.37;15.83;;;;;;;17.28;100.00;150380.34;5134858;27;20191;-64
2023/03/09 07:15:20;;;;;;;21.40;17.07;;;;;;;17.33;100.00;150394.31;5134680;27;20218;-63
2023/03/09 07:17:47;;;;;;;22.43;18.73;;;;;;;17.67;100.00;150479.50;5071970;27;20237;-63
2023/03/09 07:20:16;;;;;;;17.00;15.27;;;;;;;17.74;100.00;150497.28;5050534;28;20190;-63
2023/03/09 07:22:43;;;;;;;18.63;16.83;;;;;;;17.70;99.96;150487.13;5050612;28;20274;-63
2023/03/09 07:25:11;;;;;;;18.57;16.63;;;;;;;17.69;100.00;150483.34;5050194;27;20228;-63
2023/03/09 07:27:37;;;;;;;21.47;18.07;;;;;;;17.96;98.99;150550.69;5039662;28;20610;-63
2023/03/09 07:30:05;;;;;;;26.80;17.80;;;;;;;18.20;96.36;150612.97;5036596;28;20205;-63
2023/03/09 07:32:32;;;;;;;23.87;16.67;;;;;;;18.37;96.34;150654.97;5041762;27;20197;-63
2023/03/09 07:34:59;;;;;;;14.97;13.37;;;;;;;18.20;96.56;150612.97;5046203;28;20288;-63
2023/03/09 07:37:27;;;;;;;16.33;12.37;;;;;;;18.23;96.81;150620.63;5049830;28;20227;-63
2023/03/09 07:39:54;;;;;;;16.57;11.97;;;;;;;18.65;95.08;150724.94;5050069;28;20189;-63
2023/03/09 07:42:21;;;;;;;16.07;11.87;;;;;;;19.13;92.42;150845.81;5050063;28;20186;-63
2023/03/09 07:44:48;;;;;;;14.10;12.50;;;;;;;19.63;87.66;150971.81;5050380;28;20186;-63
2023/03/09 07:47:14;;;;;;;16.17;12.73;;;;;;;20.04;84.80;151074.91;5049952;28;20188;-64
2023/03/09 07:49:41;;;;;;;21.73;13.15;;;;;;;20.38;81.78;151160.28;5050165;28;20560;-64
2023/03/09 07:52:08;;;;;;;14.30;10.70;;;;;;;20.54;77.69;151199.78;5050209;28;20663;-65
2023/03/09 07:54:39;;;;;;;12.13;9.15;;;;;;;20.91;74.41;151295.31;5049775;28;20186;-64
2023/03/09 07:57:06;;;;;;;10.57;8.43;;;;;;;20.34;73.86;151151.38;5049839;28;20205;-64
2023/03/09 07:59:33;;;;;;;12.17;7.87;;;;;;;20.62;74.29;151220.16;5050026;28;20186;-64
2023/03/09 08:02:00;;;;;;;8.68;6.82;;;;;;;21.19;72.12;151365.41;5049944;28;20627;-63
2023/03/09 08:04:27;;;;;;;7.53;6.68;;;;;;;21.58;70.11;151463.53;5049474;28;20656;-65
2023/03/09 08:06:53;;;;;;;7.35;6.28;;;;;;;21.71;70.70;151496.69;5049508;28;20190;-64
2023/03/09 08:09:20;;;;;;;16.30;7.13;;;;;;;22.08;67.16;151589.78;5049879;28;20189;-63
2023/03/09 08:11:48;;;;;;;6.93;5.22;;;;;;;22.43;62.68;151677.75;5049537;28;20190;-64
2023/03/09 08:14:16;;;;;;;8.75;5.90;;;;;;;22.24;62.34;151629.28;5049589;28;20193;-69
2023/03/09 08:16:43;;;;;;;7.95;5.63;;;;;;;22.21;64.47;151621.66;5049240;28;20233;-65
2023/03/09 08:19:09;;;;;;;7.88;5.25;;;;;;;22.73;63.68;151753.06;5049422;28;20186;-64
2023/03/09 08:21:37;;;;;;;4.93;4.47;;;;;;;23.30;60.25;151895.97;5049402;28;20196;-63
2023/03/09 08:24:04;;;;;;;5.13;4.50;;;;;;;23.57;56.81;151966.19;5049506;28;20187;-65
2023/03/09 08:26:31;;;;;;;7.22;4.47;;;;;;;23.78;56.46;152018.50;5049954;28;20188;-64
2023/03/09 08:29:00;;;;;;;4.32;3.95;;;;;;;23.82;54.71;152027.41;5049656;28;20242;-63
2023/03/09 08:31:27;;;;;;;7.72;4.55;;;;;;;24.17;52.85;152116.84;5049280;28;20190;-64
2023/03/09 08:33:54;;;;;;;4.00;3.70;;;;;;;24.52;50.46;152206.25;5049078;28;20281;-65
2023/03/09 08:36:22;;;;;;;3.60;3.17;;;;;;;24.25;49.65;152137.28;5049244;28;20213;-64
2023/03/09 08:38:51;;;;;;;3.53;3.25;;;;;;;24.18;51.16;152119.41;5049252;28;20199;-63
2023/03/09 08:41:19;;;;;;;3.97;3.58;;;;;;;23.88;52.17;152044.03;5049374;28;20683;-63
2023/03/09 08:43:47;;;;;;;3.47;3.28;;;;;;;24.06;52.48;152088.72;5049238;28;20186;-64
2023/03/09 08:46:15;;;;;;;4.45;3.83;;;;;;;24.27;51.17;152141.13;5048887;28;20261;-64
2023/03/09 08:48:42;;;;;;;8.32;4.20;;;;;;;24.06;51.17;152089.97;5048994;28;20192;-64
2023/03/09 08:51:11;;;;;;;6.43;4.05;;;;;;;24.36;50.97;152164.06;5049377;28;20501;-64
2023/03/09 08:53:38;;;;;;;3.30;3.10;;;;;;;24.72;49.11;152256.03;5055547;28;20619;-64
2023/03/09 08:56:07;;;;;;;2.88;2.08;;;;;;;25.08;47.39;152345.50;5067435;28;20252;-62
2023/03/09 08:58:34;;;;;;;3.10;2.75;;;;;;;25.06;46.58;152340.38;5069204;28;20269;-64
2023/03/09 09:01:02;;;;;;;2.83;2.63;;;;;;;24.89;46.94;152298.22;5068718;28;20588;-64
2023/03/09 09:03:32;;;;;;;2.90;2.13;;;;;;;25.34;45.18;152413.19;5069182;27;20644;-64
2023/03/09 09:06:04;;;;;;;3.03;2.70;;;;;;;25.37;45.15;152420.91;5069038;28;20237;-63
2023/03/09 09:08:31;;;;;;;2.13;2.03;;;;;;;26.11;43.04;152606.22;5068815;28;20650;-63
2023/03/09 09:10:58;;;;;;;2.30;2.20;;;;;;;26.25;42.20;152643.38;5069208;27;20196;-63
2023/03/09 09:13:25;;;;;;;4.10;2.90;;;;;;;26.92;40.85;152810.91;5068946;28;20237;-63
2023/03/09 09:15:53;;;;;;;2.20;2.10;;;;;;;26.61;39.74;152734.13;5067837;28;20602;-64
2023/03/09 09:18:20;;;;;;;3.50;2.15;;;;;;;26.59;39.54;152729.03;5068354;28;20213;-63
2023/03/09 09:20:50;;;;;;;3.80;2.95;;;;;;;26.93;40.62;152813.47;5068482;28;20195;-64
2023/03/09 09:23:16;;;;;;;5.93;3.00;;;;;;;27.45;40.17;152945.25;5068730;28;20207;-63
2023/03/09 09:25:43;;;;;;;3.35;2.30;;;;;;;27.40;39.73;152933.75;5068750;27;20196;-62
2023/03/09 09:28:10;;;;;;;2.60;2.45;;;;;;;27.55;39.19;152972.16;5068522;28;20276;-63
2023/03/09 09:30:42;;;;;;;2.50;2.30;;;;;;;27.58;38.43;152978.56;5068413;27;20276;-63
2023/03/09 09:33:11;;;;;;;2.85;2.55;;;;;;;28.35;38.50;153174.41;5068641;27;20236;-63
2023/03/09 09:35:38;;;;;;;2.90;2.70;;;;;;;28.52;37.54;153216.66;5067955;28;20196;-64
2023/03/09 09:38:06;;;;;;;2.30;1.83;;;;;;;28.59;35.51;153235.91;5067086;28;20657;-63
2023/03/09 09:40:34;;;;;;;2.80;2.00;;;;;;;28.90;34.54;153312.72;5068153;28;20193;-63
2023/03/09 09:43:00;;;;;;;2.55;2.30;;;;;;;28.38;36.08;153180.84;5068167;27;20662;-63
2023/03/09 09:45:33;;;;;;;3.85;2.10;;;;;;;29.60;35.24;153489.56;5067908;28;20207;-63
2023/03/09 09:48:04;;;;;;;3.05;2.72;;;;;;;29.95;34.97;153579.31;5068419;28;20220;-63
2023/03/09 09:50:55;;;;;;;3.50;2.40;;;;;;;30.08;34.96;153612.63;5068409;28;20189;-63
2023/03/09 09:53:34;;;;;;;2.33;2.13;;;;;;;30.07;34.25;153608.78;5068237;28;20582;-63
2023/03/09 09:56:02;;;;;;;5.70;2.55;;;;;;;29.97;34.53;153583.13;5068089;28;20284;-63
2023/03/09 09:58:36;;;;;;;2.75;2.60;;;;;;;30.02;35.72;153595.94;5068122;28;20264;-62
2023/03/09 10:01:13;;;;;;;2.60;2.50;;;;;;;29.30;36.46;153415.25;5068582;28;20308;-64
2023/03/09 10:03:46;;;;;;;4.53;2.47;;;;;;;29.60;36.30;153489.56;5068749;28;20188;-63
2023/03/09 10:06:17;;;;;;;2.47;2.38;;;;;;;28.88;36.26;153307.63;5067573;28;20218;-64
2023/03/09 10:08:48;;;;;;;3.58;2.67;;;;;;;29.62;36.05;153494.72;5068234;28;20181;-63
2023/03/09 10:11:23;;;;;;;4.18;2.60;;;;;;;29.40;35.75;153439.63;5068679;28;20185;-64
2023/03/09 10:13:54;;;;;;;2.70;2.50;;;;;;;29.08;35.73;153357.56;5067672;28;20185;-64
2023/03/09 10:16:25;;;;;;;11.18;3.08;;;;;;;28.62;36.40;153242.28;5067509;28;20611;-63
2023/03/09 10:18:55;;;;;;;2.95;2.70;;;;;;;28.62;36.17;153242.28;5067472;28;20205;-63
2023/03/09 10:21:27;;;;;;;3.72;2.38;;;;;;;28.71;35.50;153264.09;5067333;28;20196;-64
2023/03/09 10:23:57;;;;;;;2.80;2.60;;;;;;;28.88;35.60;153307.63;5068019;28;20566;-64
2023/03/09 10:26:40;;;;;;;3.03;2.30;;;;;;;28.05;36.17;153098.84;5068252;28;20272;-65
2023/03/09 10:29:16;;;;;;;4.63;2.72;;;;;;;29.09;35.92;153361.41;5070784;28;20205;-64
2023/03/09 10:31:49;;;;;;;2.88;2.30;;;;;;;29.54;34.40;153474.16;5071445;28;20210;-62
2023/03/09 10:34:20;;;;;;;3.28;2.25;;;;;;;29.31;34.25;153417.84;5070962;28;20229;-64
2023/03/09 10:36:59;;;;;;;2.50;2.30;;;;;;;28.92;34.33;153317.88;5071091;28;20631;-63
2023/03/09 10:39:32;;;;;;;3.05;1.90;;;;;;;28.54;35.48;153223.09;5069756;28;20189;-63
2023/03/09 10:42:06;;;;;;;2.20;2.10;;;;;;;29.12;35.03;153369.09;5071291;28;20299;-63
2023/03/09 10:44:34;;;;;;;2.83;2.63;;;;;;;29.71;33.75;153517.72;5071173;28;20639;-63
2023/03/09 10:47:02;;;;;;;3.03;2.70;;;;;;;30.09;33.56;153613.88;5070950;28;20188;-63
2023/03/09 10:49:29;;;;;;;3.65;3.35;;;;;;;29.71;33.83;153517.72;5071069;28;20644;-63
2023/03/09 10:52:01;;;;;;;2.42;2.33;;;;;;;30.93;32.41;153826.75;5070984;27;20185;-64
2023/03/09 10:54:35;;;;;;;2.47;2.38;;;;;;;31.12;32.44;153875.50;5071044;28;20559;-63
2023/03/09 10:57:03;;;;;;;2.75;2.55;;;;;;;29.75;34.19;153527.97;5070901;28;20596;-63
2023/03/09 10:59:30;;;;;;;3.60;2.22;;;;;;;29.84;34.31;153552.31;5070999;28;20189;-62
2023/03/09 11:01:59;;;;;;;1.92;1.83;;;;;;;28.10;33.74;153111.69;5071035;28;20195;-60
2023/03/09 11:04:41;;;;;;;2.25;1.80;;;;;;;27.33;35.72;152915.78;5070992;28;20615;-63
2023/03/09 11:07:22;;;;;;;2.85;2.65;;;;;;;26.78;36.46;152777.59;5070970;28;20271;-63
2023/03/09 11:09:52;;;;;;;2.67;2.55;;;;;;;26.32;37.34;152659.97;5071369;28;20184;-62
2023/03/09 11:12:25;;;;;;;2.22;2.13;;;;;;;25.29;37.74;152399.19;5071171;28;20608;-62
2023/03/09 11:14:55;;;;;;;2.35;2.15;;;;;;;25.70;37.80;152502.72;5070980;28;20211;-61
2023/03/09 11:17:39;;;;;;;2.83;1.95;;;;;;;25.71;38.10;152505.28;5070685;28;20598;-62